Latest Coastal Weather Observations for Cape Nelson

IDS60701

Issued at 11:21 am CDT Saturday 20 December 2014 (issued every 10 minutes, with the page automatically refreshed every 10 minutes)

About coastal observations | Map of coastal stations | Coastal observations for SA | Marine services | Other Formats
Station Details ID: 090184 Name: CAPE NELSON LIGHTHOUSE Lat: -38.43 Lon: 141.54 Height: 45.4 m
Data from the previous 72 hours. | See also: Recent months at Cape Nelson
Date/Time
CDT
Temp

°C
Wind Pressure Rain
since 9am
mm
Weather Cloud Vis
km
Sea
Height
m
Swell
Dir
 
Speed
knots
Gust
knots
hPa Trend Height
m
Period
s
Dir
20/11:00am 17.3 WNW 11 15 1019.8 - 0.0 - - - - - - -
20/10:30am 16.9 W 11 15 1019.8 - 0.0 - - - - - - -
20/10:00am 17.2 W 10 16 1019.8 - 0.0 - - - - - - -
20/09:30am 16.8 W 7 10 1019.8 - 0.0 - - - - - - -
20/09:00am 16.3 W 8 13 1019.6 - 0.0 - - - - - - -
20/08:30am 16.0 W 9 12 1019.4 - 0.0 - - - - - - -
20/08:00am 15.6 W 10 15 1018.9 - 0.0 - - - - - - -
20/07:30am 15.2 WNW 11 16 1018.7 - 0.0 - - - - - - -
20/07:00am 15.3 W 9 16 1018.3 - 0.0 - - - - - - -
20/06:30am 15.4 WNW 8 15 1018.0 - 0.0 - - - - - - -
20/06:00am 15.1 W 10 17 1017.8 - 0.0 - - - - - - -
20/05:30am 15.4 W 12 17 1017.6 - 0.0 - - - - - - -
20/05:00am 15.4 W 8 14 1017.5 - 0.0 - - - - - - -
20/04:30am 15.3 W 8 12 1017.6 - 0.0 - - - - - - -
20/04:00am 15.2 W 12 18 1017.6 - 0.0 - - - - - - -
20/03:30am 15.1 W 9 16 1017.6 - 0.0 - - - - - - -
20/03:00am 15.2 W 11 15 1017.7 - 0.0 - - - - - - -
20/02:30am 15.2 W 6 10 1018.0 - 0.0 - - - - - - -
20/02:00am 15.2 W 7 11 1018.5 - 0.0 - - - - - - -
20/01:30am 15.0 W 9 13 1018.8 - 0.0 - - - - - - -
20/01:00am 14.9 W 9 13 1019.1 - 0.0 - - - - - - -
20/12:30am 14.9 W 10 13 1019.2 - 0.0 - - - - - - -
20/12:00am 14.8 W 11 14 1019.4 - 0.0 - - - - - - -
 
Date/Time
CDT
Temp

°C
Wind Pressure Rain
since 9am
mm
Weather Cloud Vis
km
Sea
Height
m
Swell
Dir
 
Speed
knots
Gust
knots
hPa Trend Height
m
Period
s
Dir
19/11:30pm 15.2 W 8 13 1019.6 - 0.0 - - - - - - -
19/11:00pm 15.2 W 9 13 1019.9 - 0.0 - - - - - - -
19/10:30pm 15.0 W 9 13 1020.0 - 0.0 - - - - - - -
19/10:00pm 15.2 W 9 14 1020.2 - 0.0 - - - - - - -
19/09:30pm 15.1 W 8 11 1020.1 - 0.0 - - - - - - -
19/09:00pm 15.1 W 11 15 1020.0 - 0.0 - - - - - - -
19/08:30pm 15.1 W 9 13 1020.0 - 0.0 - - - - - - -
19/08:00pm 15.1 W 12 17 1020.2 - 0.0 - - - - - - -
19/07:30pm 15.6 W 12 16 1020.0 - 0.0 - - - - - - -
19/07:00pm 15.6 W 13 17 1019.7 - 0.0 - - - - - - -
19/06:30pm 15.8 W 14 19 1019.6 - 0.0 - - - - - - -
19/06:00pm 16.1 WNW 10 18 1019.5 - 0.0 - - - - - - -
19/05:30pm 16.4 WNW 11 17 1019.2 - 0.0 - - - - - - -
19/05:00pm 16.2 W 14 19 1019.3 - 0.0 - - - - - - -
19/04:30pm 15.9 W 14 19 1019.3 - 0.0 - - - - - - -
19/04:00pm 15.9 W 13 17 1019.3 - 0.0 - - - - - - -
19/03:30pm 16.0 W 14 19 1019.5 - 0.0 - - - - - - -
19/03:00pm 15.9 W 14 19 1019.6 - 0.0 - - - - - - -
19/02:30pm 15.9 W 14 19 1019.6 - 0.0 - - - - - - -
19/02:00pm 15.6 W 14 18 1019.5 - 0.0 - - - - - - -
19/01:30pm 16.1 W 12 18 1019.4 - 0.0 - - - - - - -
19/01:00pm 15.7 WNW 12 17 1019.4 - 0.0 - - - - - - -
19/12:30pm 16.5 W 11 16 1019.3 - 0.0 - - - - - - -
19/12:00pm 15.8 WNW 10 15 1019.3 - 0.0 - - - - - - -
19/11:30am 16.5 WNW 9 14 1019.2 - 0.0 - - - - - - -
19/11:00am 17.1 NNE 7 12 1019.0 - 0.0 - - - - - - -
19/10:30am 16.6 NW 9 15 1019.0 - 0.0 - - - - - - -
19/10:00am 16.9 NNW 6 12 1018.9 - 0.0 - - - - - - -
19/09:30am 16.8 NNE 7 13 1018.6 - 0.0 - - - - - - -
19/09:00am 16.8 NE 7 11 1018.5 - 0.0 - - - - - - -
19/08:30am 16.5 N 6 11 1017.8 - 4.0 - - - - - - -
19/08:00am 15.4 NE 7 11 1017.6 - 4.0 - - - - - - -
19/07:30am 14.8 ENE 7 9 1017.3 - 4.0 - - - - - - -
19/07:00am 14.7 E 7 13 1016.9 - 4.0 - - - - - - -
19/06:30am 14.1 NE 7 12 1016.4 - 4.0 - - - - - - -
19/06:00am 13.3 NE 8 12 1015.9 - 4.0 - - - - - - -
19/05:30am 13.3 NE 8 13 1015.7 - 4.0 - - - - - - -
19/05:00am 13.8 NNE 9 16 1015.2 - 4.0 - - - - - - -
19/04:30am 13.4 NNE 8 15 1015.1 - 4.0 - - - - - - -
19/04:00am 13.4 E 8 15 1015.2 - 4.0 - - - - - - -
19/03:30am 13.3 ENE 9 15 1014.9 - 4.0 - - - - - - -
19/03:00am 13.4 NE 9 15 1014.8 - 4.0 - - - - - - -
19/02:30am 13.4 ENE 9 17 1014.7 - 4.0 - - - - - - -
19/02:00am 13.5 ENE 10 16 1014.6 - 4.0 - - - - - - -
19/01:30am 13.6 NE 9 15 1014.7 - 4.0 - - - - - - -
19/01:00am 13.5 NNE 9 15 1014.7 - 4.0 - - - - - - -
19/12:30am 13.5 NNE 10 14 1014.7 - 4.0 - - - - - - -
19/12:00am 13.2 NE 11 20 1014.4 - 4.0 - - - - - - -
 
Date/Time
CDT
Temp

°C
Wind Pressure Rain
since 9am
mm
Weather Cloud Vis
km
Sea
Height
m
Swell
Dir
 
Speed
knots
Gust
knots
hPa Trend Height
m
Period
s
Dir
18/11:30pm 13.3 ENE 7 11 1014.6 - 4.0 - - - - - - -
18/11:00pm 13.8 N 9 17 1014.2 - 4.0 - - - - - - -
18/10:30pm 13.7 NNE 9 15 1014.1 - 4.0 - - - - - - -
18/10:00pm 13.7 ENE 10 14 1014.0 - 4.0 - - - - - - -
18/09:30pm 14.3 NW 9 16 1013.7 - 4.0 - - - - - - -
18/09:00pm 14.2 NNE 9 13 1013.3 - 4.0 - - - - - - -
18/08:30pm 14.2 NNW 11 20 1013.0 - 4.0 - - - - - - -
18/08:00pm 14.1 NNE 10 15 1012.8 - 4.0 - - - - - - -
18/07:30pm 14.8 N 13 21 1012.3 - 4.0 - - - - - - -
18/07:00pm 15.3 WNW 14 22 1012.1 - 4.0 - - - - - - -
18/06:30pm 15.1 WNW 14 22 1011.5 - 4.0 - - - - - - -
18/06:00pm 15.5 NW 11 17 1010.9 - 4.0 - - - - - - -
18/05:30pm 16.2 NW 13 20 1010.6 - 4.0 - - - - - - -
18/05:00pm 16.2 WNW 13 24 1010.2 - 4.0 - - - - - - -
18/04:32pm 16.4 WNW 15 25 1010.0 - 4.0 - - - - - - -
18/04:30pm 16.2 WNW 14 25 1010.0 - 4.0 - - - - - - -
18/04:17pm 16.3 WNW 16 26 1009.7 - 4.0 - - - - - - -
18/04:00pm 16.1 W 17 26 1009.6 - 4.0 - - - - - - -
18/03:37pm 16.2 WNW 17 27 1009.2 - 4.0 - - - - - - -
18/03:30pm 15.8 W 18 27 1009.2 - 3.8 - - - - - - -
18/03:27pm 15.9 WNW 15 27 1009.1 - 3.8 - - - - - - -
18/03:00pm 15.6 WNW 12 21 1008.6 - 3.8 - - - - - - -
18/02:30pm 15.8 W 17 24 1008.5 - 3.8 - - - - - - -
18/02:00pm 15.5 W 11 18 1008.3 - 3.8 - - - - - - -
18/01:30pm 14.4 WNW 11 20 1008.0 - 3.8 - - - - - - -
18/01:03pm 16.0 W 15 25 1007.4 - 3.4 - - - - - - -
18/01:00pm 16.1 W 13 19 1007.4 - 3.4 - - - - - - -
18/12:30pm 15.6 W 21 27 1007.0 - 3.4 - - - - - - -
18/12:19pm 15.3 W 15 25 1006.9 - 3.4 - - - - - - -
18/12:00pm 15.7 W 14 20 1006.7 - 3.4 - - - - - - -
18/11:30am 14.9 W 11 18 1006.5 - 3.4 Recent precip. - - - - - -
18/11:00am 13.8 W 16 24 1006.3 - 3.4 - - - - - - -
18/10:43am 13.9 W 15 25 1006.2 - 3.4 - - - - - - -
18/10:30am 13.5 WNW 18 26 1006.1 - 3.0 - - - - - - -
18/10:06am 16.0 WNW 19 29 1005.8 - 0.0 - - - - - - -
18/10:00am 18.4 NW 18 25 1005.3 - 0.0 - - - - - - -
18/09:30am 16.1 NW 17 23 1005.4 - 0.0 - - - - - - -
18/09:00am 15.4 NW 20 26 1005.4 - 0.0 - - - - - - -
18/08:30am 15.0 NW 17 24 1005.3 - 0.0 - - - - - - -
18/08:02am 13.8 NW 18 28 1005.1 - 0.0 - - - - - - -
18/08:00am 13.8 NW 19 28 1005.1 - 0.0 - - - - - - -
18/07:47am 14.9 NW 17 27 1005.1 - 0.0 - - - - - - -
18/07:30am 14.7 NW 13 17 1004.9 - 0.0 - - - - - - -
18/07:00am 13.7 NW 15 20 1004.7 - 0.0 - - - - - - -
18/06:30am 12.8 NNW 13 18 1004.8 - 0.0 - - - - - - -
18/06:00am 11.9 NNW 13 19 1004.6 - 0.0 - - - - - - -
18/05:30am 11.0 NNW 9 14 1004.6 - 0.0 - - - - - - -
18/05:00am 10.9 N 10 13 1004.5 - 0.0 - - - - - - -
18/04:30am 10.9 N 10 13 1004.5 - 0.0 - - - - - - -
18/04:00am 10.8 N 11 15 1004.5 - 0.0 - - - - - - -
18/03:30am 11.0 N 10 13 1004.8 - 0.0 - - - - - - -
18/03:00am 11.5 N 10 14 1005.0 - 0.0 - - - - - - -
18/02:30am 11.4 N 9 13 1005.5 - 0.0 - - - - - - -
18/02:00am 11.1 N 9 13 1005.7 - 0.0 - - - - - - -
18/01:30am 11.2 N 9 12 1006.1 - 0.0 - - - - - - -
18/01:00am 11.2 N 8 11 1006.4 - 0.0 - - - - - - -
18/12:30am 11.4 N 8 11 1006.6 - 0.0 - - - - - - -
18/12:00am 11.2 N 7 8 1006.7 - 0.0 - - - - - - -
 
Date/Time
CDT
Temp

°C
Wind Pressure Rain
since 9am
mm
Weather Cloud Vis
km
Sea
Height
m
Swell
Dir
 
Speed
knots
Gust
knots
hPa Trend Height
m
Period
s
Dir
17/11:30pm 11.1 N 6 8 1006.9 - 0.0 - - - - - - -
17/11:00pm 11.7 NNW 5 7 1006.8 - 0.0 - - - - - - -
17/10:30pm 13.0 NW 5 7 1007.1 - 0.0 - - - - - - -
17/10:00pm 13.9 NW 7 12 1007.3 - 0.0 - - - - - - -
17/09:30pm 14.5 WNW 9 13 1007.5 - 0.0 - - - - - - -
17/09:00pm 14.6 WNW 9 11 1007.4 - 0.0 - - - - - - -
17/08:30pm 15.0 W 12 18 1007.6 - 0.0 - - - - - - -
17/08:00pm 15.5 W 11 16 1007.7 - 0.0 - - - - - - -
17/07:30pm 15.9 W 10 16 1007.7 - 0.0 - - - - - - -
17/07:00pm 16.4 WNW 11 15 1007.6 - 0.0 - - - - - - -
17/06:30pm 17.0 W 9 14 1007.5 - 0.0 - - - - - - -
17/06:00pm 16.9 W 9 14 1007.3 - 0.0 - - - - - - -
17/05:30pm 16.9 W 9 15 1007.5 - 0.0 - - - - - - -
17/05:00pm 17.2 WNW 10 15 1007.7 - 0.0 - - - - - - -
17/04:30pm 17.5 WNW 11 16 1008.0 - 0.0 - - - - - - -
17/04:00pm 16.4 W 13 17 1008.3 - 0.0 - - - - - - -
17/03:30pm 16.5 W 13 17 1008.5 - 0.0 - - - - - - -
17/03:00pm 16.9 W 13 16 1008.5 - 0.0 - - - - - - -
17/02:30pm 17.4 W 11 16 1008.6 - 0.0 - - - - - - -
17/02:00pm 16.9 W 12 18 1008.8 - 0.0 - - - - - - -
17/01:30pm 17.2 W 10 16 1009.1 - 0.0 - - - - - - -
17/01:00pm 17.1 W 11 15 1009.2 - 0.0 - - - - - - -
17/12:30pm 16.7 WNW 10 15 1009.4 - 0.0 - - - - - - -
17/12:00pm 16.9 W 9 14 1009.4 - 0.0 - - - - - - -
17/11:30am 17.5 WNW 10 13 1009.4 - 0.0 - - - - - - -
17/11:00am 16.0 WNW 12 18 1009.4 - 0.0 - - - - - - -

Other Formats:

Comma delimited format used in spreadsheet applications
http://www.bom.gov.au/fwo/IDS60701/IDS60701.94826.axf

JavaScript Object Notation format (JSON) in row-major order
http://www.bom.gov.au/fwo/IDS60701/IDS60701.94826.json